sensor_id;sensor_type;location;lat;lon;timestamp;P1;durP1;ratioP1;P2;durP2;ratioP2
36833;SDS011;48003;52.084;5.224;2022-11-24T00:01:21;21.9;;;4.61;;
36833;SDS011;48003;52.084;5.224;2022-11-24T00:02:59;25.4;;;4.91;;
36833;SDS011;48003;52.084;5.224;2022-11-24T00:06:12;24.3;;;5.3;;
36833;SDS011;48003;52.084;5.224;2022-11-24T00:07:50;25.2;;;5.11;;
36833;SDS011;48003;52.084;5.224;2022-11-24T00:09:26;21.7;;;4.41;;
36833;SDS011;48003;52.084;5.224;2022-11-24T00:12:40;18.0;;;4.1;;
36833;SDS011;48003;52.084;5.224;2022-11-24T00:14:16;21.1;;;4.2;;
36833;SDS011;48003;52.084;5.224;2022-11-24T00:15:53;20.11;;;4.1;;
36833;SDS011;48003;52.084;5.224;2022-11-24T00:17:29;23.4;;;4.7;;
36833;SDS011;48003;52.084;5.224;2022-11-24T00:20:50;18.7;;;4.2;;
36833;SDS011;48003;52.084;5.224;2022-11-24T00:22:28;16.4;;;4.3;;
36833;SDS011;48003;52.084;5.224;2022-11-24T00:24:04;18.3;;;3.8;;
36833;SDS011;48003;52.084;5.224;2022-11-24T00:27:17;13.6;;;3.1;;
36833;SDS011;48003;52.084;5.224;2022-11-24T00:28:54;20.11;;;3.9;;
36833;SDS011;48003;52.084;5.224;2022-11-24T00:30:36;19.61;;;3.8;;
36833;SDS011;48003;52.084;5.224;2022-11-24T00:32:13;18.8;;;3.6;;
36833;SDS011;48003;52.084;5.224;2022-11-24T00:35:29;17.7;;;3.5;;
36833;SDS011;48003;52.084;5.224;2022-11-24T00:37:05;18.3;;;3.2;;
36833;SDS011;48003;52.084;5.224;2022-11-24T00:44:03;17.11;;;3.8;;
36833;SDS011;48003;52.084;5.224;2022-11-24T00:45:40;16.2;;;3.0;;
36833;SDS011;48003;52.084;5.224;2022-11-24T00:47:17;17.61;;;3.4;;
36833;SDS011;48003;52.084;5.224;2022-11-24T00:48:53;17.8;;;3.8;;
36833;SDS011;48003;52.084;5.224;2022-11-24T00:52:06;20.0;;;3.8;;
36833;SDS011;48003;52.084;5.224;2022-11-24T00:53:43;16.4;;;3.5;;
36833;SDS011;48003;52.084;5.224;2022-11-24T00:55:20;24.7;;;4.2;;
36833;SDS011;48003;52.084;5.224;2022-11-24T00:58:33;21.7;;;4.0;;
36833;SDS011;48003;52.084;5.224;2022-11-24T01:00:11;13.8;;;3.5;;
36833;SDS011;48003;52.084;5.224;2022-11-24T01:01:47;21.7;;;4.41;;
36833;SDS011;48003;52.084;5.224;2022-11-24T01:03:23;23.5;;;4.5;;
36833;SDS011;48003;52.084;5.224;2022-11-24T01:06:37;23.9;;;4.41;;
36833;SDS011;48003;52.084;5.224;2022-11-24T01:08:13;22.6;;;4.0;;
36833;SDS011;48003;52.084;5.224;2022-11-24T01:09:50;23.7;;;4.7;;
36833;SDS011;48003;52.084;5.224;2022-11-24T01:13:04;26.8;;;4.3;;
36833;SDS011;48003;52.084;5.224;2022-11-24T01:14:41;26.3;;;4.8;;
36833;SDS011;48003;52.084;5.224;2022-11-24T01:16:19;28.5;;;4.7;;
36833;SDS011;48003;52.084;5.224;2022-11-24T01:19:34;24.4;;;4.41;;
36833;SDS011;48003;52.084;5.224;2022-11-24T01:21:10;19.41;;;4.1;;
36833;SDS011;48003;52.084;5.224;2022-11-24T01:22:48;27.3;;;4.2;;
36833;SDS011;48003;52.084;5.224;2022-11-24T01:24:24;20.41;;;4.7;;
36833;SDS011;48003;52.084;5.224;2022-11-24T01:27:39;23.1;;;4.2;;
36833;SDS011;48003;52.084;5.224;2022-11-24T01:29:15;24.6;;;4.91;;
36833;SDS011;48003;52.084;5.224;2022-11-24T01:30:55;20.7;;;4.2;;
36833;SDS011;48003;52.084;5.224;2022-11-24T01:34:09;17.5;;;3.9;;
36833;SDS011;48003;52.084;5.224;2022-11-24T01:35:45;20.0;;;4.1;;
36833;SDS011;48003;52.084;5.224;2022-11-24T01:37:22;20.5;;;3.8;;
36833;SDS011;48003;52.084;5.224;2022-11-24T01:38:58;16.5;;;3.8;;
36833;SDS011;48003;52.084;5.224;2022-11-24T01:42:10;20.5;;;4.1;;
36833;SDS011;48003;52.084;5.224;2022-11-24T01:43:48;21.2;;;4.41;;
36833;SDS011;48003;52.084;5.224;2022-11-24T01:45:29;22.2;;;4.1;;
36833;SDS011;48003;52.084;5.224;2022-11-24T01:49:12;19.8;;;3.7;;
36833;SDS011;48003;52.084;5.224;2022-11-24T01:50:54;18.3;;;4.2;;
36833;SDS011;48003;52.084;5.224;2022-11-24T01:52:41;16.3;;;3.7;;
36833;SDS011;48003;52.084;5.224;2022-11-24T01:54:25;14.1;;;3.4;;
36833;SDS011;48003;52.084;5.224;2022-11-24T01:56:06;21.8;;;4.5;;
36833;SDS011;48003;52.084;5.224;2022-11-24T01:59:26;19.2;;;3.9;;
36833;SDS011;48003;52.084;5.224;2022-11-24T02:01:03;22.4;;;3.7;;
36833;SDS011;48003;52.084;5.224;2022-11-24T02:02:39;18.41;;;3.5;;
36833;SDS011;48003;52.084;5.224;2022-11-24T02:04:18;19.3;;;3.8;;
36833;SDS011;48003;52.084;5.224;2022-11-24T02:07:43;20.5;;;3.9;;
36833;SDS011;48003;52.084;5.224;2022-11-24T02:09:22;19.91;;;3.7;;
36833;SDS011;48003;52.084;5.224;2022-11-24T02:11:04;24.4;;;3.7;;
36833;SDS011;48003;52.084;5.224;2022-11-24T02:12:43;20.3;;;3.7;;
36833;SDS011;48003;52.084;5.224;2022-11-24T02:15:59;13.7;;;3.2;;
36833;SDS011;48003;52.084;5.224;2022-11-24T02:17:36;19.2;;;3.7;;
36833;SDS011;48003;52.084;5.224;2022-11-24T02:19:13;14.8;;;3.2;;
36833;SDS011;48003;52.084;5.224;2022-11-24T02:21:12;20.6;;;3.4;;
36833;SDS011;48003;52.084;5.224;2022-11-24T02:22:52;17.2;;;3.4;;
36833;SDS011;48003;52.084;5.224;2022-11-24T02:26:27;17.5;;;3.6;;
36833;SDS011;48003;52.084;5.224;2022-11-24T02:28:14;17.5;;;3.4;;
36833;SDS011;48003;52.084;5.224;2022-11-24T02:29:54;14.2;;;3.1;;
36833;SDS011;48003;52.084;5.224;2022-11-24T02:31:30;18.41;;;3.8;;
36833;SDS011;48003;52.084;5.224;2022-11-24T02:34:45;13.4;;;3.1;;
36833;SDS011;48003;52.084;5.224;2022-11-24T02:36:21;14.3;;;2.8;;
36833;SDS011;48003;52.084;5.224;2022-11-24T02:37:57;20.7;;;3.2;;
36833;SDS011;48003;52.084;5.224;2022-11-24T02:41:10;19.61;;;3.4;;
36833;SDS011;48003;52.084;5.224;2022-11-24T02:42:52;17.11;;;3.7;;
36833;SDS011;48003;52.084;5.224;2022-11-24T02:44:34;18.41;;;3.4;;
36833;SDS011;48003;52.084;5.224;2022-11-24T02:46:14;14.5;;;3.0;;
36833;SDS011;48003;52.084;5.224;2022-11-24T02:49:26;15.3;;;3.0;;
36833;SDS011;48003;52.084;5.224;2022-11-24T02:51:03;22.8;;;3.6;;
36833;SDS011;48003;52.084;5.224;2022-11-24T02:52:40;15.7;;;3.1;;
36833;SDS011;48003;52.084;5.224;2022-11-24T02:54:17;15.2;;;3.0;;
36833;SDS011;48003;52.084;5.224;2022-11-24T02:57:30;19.11;;;3.2;;
36833;SDS011;48003;52.084;5.224;2022-11-24T02:59:07;17.2;;;3.3;;
36833;SDS011;48003;52.084;5.224;2022-11-24T03:00:43;19.91;;;3.2;;
36833;SDS011;48003;52.084;5.224;2022-11-24T03:03:56;14.9;;;3.3;;
36833;SDS011;48003;52.084;5.224;2022-11-24T03:05:32;17.2;;;3.3;;
36833;SDS011;48003;52.084;5.224;2022-11-24T03:07:08;14.4;;;3.0;;
36833;SDS011;48003;52.084;5.224;2022-11-24T03:10:21;16.9;;;3.3;;
36833;SDS011;48003;52.084;5.224;2022-11-24T03:11:57;14.0;;;3.0;;
36833;SDS011;48003;52.084;5.224;2022-11-24T03:13:34;16.2;;;2.9;;
36833;SDS011;48003;52.084;5.224;2022-11-24T03:15:10;16.11;;;3.1;;
36833;SDS011;48003;52.084;5.224;2022-11-24T03:18:22;12.7;;;2.5;;
36833;SDS011;48003;52.084;5.224;2022-11-24T03:20:01;15.6;;;3.2;;
36833;SDS011;48003;52.084;5.224;2022-11-24T03:21:36;15.8;;;3.2;;
36833;SDS011;48003;52.084;5.224;2022-11-24T03:24:49;16.11;;;3.1;;
36833;SDS011;48003;52.084;5.224;2022-11-24T03:26:25;16.0;;;2.8;;
36833;SDS011;48003;52.084;5.224;2022-11-24T03:28:02;16.11;;;3.0;;
36833;SDS011;48003;52.084;5.224;2022-11-24T03:31:15;16.7;;;3.0;;
36833;SDS011;48003;52.084;5.224;2022-11-24T03:32:51;19.0;;;2.9;;
36833;SDS011;48003;52.084;5.224;2022-11-24T03:34:28;15.8;;;2.9;;
36833;SDS011;48003;52.084;5.224;2022-11-24T03:36:04;18.41;;;3.4;;
36833;SDS011;48003;52.084;5.224;2022-11-24T03:39:18;14.1;;;3.0;;
36833;SDS011;48003;52.084;5.224;2022-11-24T03:40:54;19.3;;;3.6;;
36833;SDS011;48003;52.084;5.224;2022-11-24T03:42:32;17.0;;;3.2;;
36833;SDS011;48003;52.084;5.224;2022-11-24T03:45:44;14.8;;;3.0;;
36833;SDS011;48003;52.084;5.224;2022-11-24T03:47:21;19.3;;;3.2;;
36833;SDS011;48003;52.084;5.224;2022-11-24T03:48:57;14.1;;;3.0;;
36833;SDS011;48003;52.084;5.224;2022-11-24T03:52:09;15.3;;;2.8;;
36833;SDS011;48003;52.084;5.224;2022-11-24T03:53:46;16.11;;;3.3;;
36833;SDS011;48003;52.084;5.224;2022-11-24T03:55:22;15.6;;;3.1;;
36833;SDS011;48003;52.084;5.224;2022-11-24T03:58:34;17.91;;;2.9;;
36833;SDS011;48003;52.084;5.224;2022-11-24T04:00:11;19.91;;;3.5;;
36833;SDS011;48003;52.084;5.224;2022-11-24T04:01:48;21.3;;;3.6;;
36833;SDS011;48003;52.084;5.224;2022-11-24T04:03:24;13.3;;;3.3;;
36833;SDS011;48003;52.084;5.224;2022-11-24T04:06:37;20.0;;;3.7;;
36833;SDS011;48003;52.084;5.224;2022-11-24T04:08:14;14.4;;;3.2;;
36833;SDS011;48003;52.084;5.224;2022-11-24T04:09:51;19.0;;;3.5;;
36833;SDS011;48003;52.084;5.224;2022-11-24T04:15:02;16.7;;;3.4;;
36833;SDS011;48003;52.084;5.224;2022-11-24T04:16:39;15.9;;;3.6;;
36833;SDS011;48003;52.084;5.224;2022-11-24T04:18:16;13.6;;;3.1;;
36833;SDS011;48003;52.084;5.224;2022-11-24T04:21:29;14.4;;;3.0;;
36833;SDS011;48003;52.084;5.224;2022-11-24T04:23:06;12.8;;;2.9;;
36833;SDS011;48003;52.084;5.224;2022-11-24T04:24:43;15.1;;;3.4;;
36833;SDS011;48003;52.084;5.224;2022-11-24T04:26:19;16.4;;;3.4;;
36833;SDS011;48003;52.084;5.224;2022-11-24T04:29:31;14.1;;;3.5;;
36833;SDS011;48003;52.084;5.224;2022-11-24T04:31:07;14.3;;;3.5;;
36833;SDS011;48003;52.084;5.224;2022-11-24T04:32:44;13.4;;;3.4;;
36833;SDS011;48003;52.084;5.224;2022-11-24T04:35:57;14.0;;;3.2;;
36833;SDS011;48003;52.084;5.224;2022-11-24T04:37:34;18.2;;;3.6;;
36833;SDS011;48003;52.084;5.224;2022-11-24T04:39:10;14.0;;;3.5;;
36833;SDS011;48003;52.084;5.224;2022-11-24T04:42:22;13.8;;;3.3;;
36833;SDS011;48003;52.084;5.224;2022-11-24T04:43:59;15.4;;;3.4;;
36833;SDS011;48003;52.084;5.224;2022-11-24T04:45:35;13.2;;;3.4;;
36833;SDS011;48003;52.084;5.224;2022-11-24T04:47:11;16.11;;;3.5;;
36833;SDS011;48003;52.084;5.224;2022-11-24T04:50:27;17.0;;;4.0;;
36833;SDS011;48003;52.084;5.224;2022-11-24T04:52:04;14.0;;;3.4;;
36833;SDS011;48003;52.084;5.224;2022-11-24T04:53:40;14.2;;;3.7;;
36833;SDS011;48003;52.084;5.224;2022-11-24T04:56:53;11.9;;;3.4;;
36833;SDS011;48003;52.084;5.224;2022-11-24T04:58:29;14.3;;;3.5;;
36833;SDS011;48003;52.084;5.224;2022-11-24T05:00:06;13.3;;;3.2;;
36833;SDS011;48003;52.084;5.224;2022-11-24T05:03:22;11.1;;;3.2;;
36833;SDS011;48003;52.084;5.224;2022-11-24T05:04:59;8.1;;;2.5;;
36833;SDS011;48003;52.084;5.224;2022-11-24T05:06:35;11.6;;;2.6;;
36833;SDS011;48003;52.084;5.224;2022-11-24T05:08:11;12.0;;;2.6;;
36833;SDS011;48003;52.084;5.224;2022-11-24T05:12:30;9.71;;;2.1;;
36833;SDS011;48003;52.084;5.224;2022-11-24T05:22:05;4.3;;;1.0;;
36833;SDS011;48003;52.084;5.224;2022-11-24T05:23:42;5.5;;;1.2;;
36833;SDS011;48003;52.084;5.224;2022-11-24T05:25:18;5.0;;;1.0;;
36833;SDS011;48003;52.084;5.224;2022-11-24T05:28:32;5.8;;;1.11;;
36833;SDS011;48003;52.084;5.224;2022-11-24T05:30:08;4.5;;;1.11;;
36833;SDS011;48003;52.084;5.224;2022-11-24T05:31:46;6.5;;;1.11;;
36833;SDS011;48003;52.084;5.224;2022-11-24T05:33:23;3.1;;;0.7;;
36833;SDS011;48003;52.084;5.224;2022-11-24T05:36:52;3.3;;;0.7;;
36833;SDS011;48003;52.084;5.224;2022-11-24T05:38:29;2.8;;;0.7;;
36833;SDS011;48003;52.084;5.224;2022-11-24T05:40:06;1.8;;;0.5;;
36833;SDS011;48003;52.084;5.224;2022-11-24T05:41:43;3.9;;;0.8;;
36833;SDS011;48003;52.084;5.224;2022-11-24T05:44:58;2.7;;;0.5;;
36833;SDS011;48003;52.084;5.224;2022-11-24T05:46:34;2.7;;;0.6;;
36833;SDS011;48003;52.084;5.224;2022-11-24T05:48:11;4.7;;;0.8;;
36833;SDS011;48003;52.084;5.224;2022-11-24T05:51:27;5.11;;;1.0;;
36833;SDS011;48003;52.084;5.224;2022-11-24T05:53:03;4.41;;;1.11;;
36833;SDS011;48003;52.084;5.224;2022-11-24T05:54:41;8.0;;;1.2;;
36833;SDS011;48003;52.084;5.224;2022-11-24T05:56:17;4.7;;;1.2;;
36833;SDS011;48003;52.084;5.224;2022-11-24T05:59:33;5.11;;;1.6;;
36833;SDS011;48003;52.084;5.224;2022-11-24T06:01:11;6.9;;;1.3;;
36833;SDS011;48003;52.084;5.224;2022-11-24T06:06:00;5.7;;;1.5;;
36833;SDS011;48003;52.084;5.224;2022-11-24T06:07:36;4.8;;;1.2;;
36833;SDS011;48003;52.084;5.224;2022-11-24T06:09:13;6.2;;;1.4;;
36833;SDS011;48003;52.084;5.224;2022-11-24T06:12:26;7.4;;;1.5;;
36833;SDS011;48003;52.084;5.224;2022-11-24T06:14:02;5.11;;;1.4;;
36833;SDS011;48003;52.084;5.224;2022-11-24T06:15:39;5.4;;;1.5;;
36833;SDS011;48003;52.084;5.224;2022-11-24T06:17:15;5.5;;;1.5;;
36833;SDS011;48003;52.084;5.224;2022-11-24T06:20:28;5.2;;;1.8;;
36833;SDS011;48003;52.084;5.224;2022-11-24T06:22:04;5.4;;;1.4;;
36833;SDS011;48003;52.084;5.224;2022-11-24T06:23:40;6.1;;;1.6;;
36833;SDS011;48003;52.084;5.224;2022-11-24T06:26:52;6.7;;;1.8;;
36833;SDS011;48003;52.084;5.224;2022-11-24T06:28:29;4.41;;;1.5;;
36833;SDS011;48003;52.084;5.224;2022-11-24T06:30:06;5.7;;;1.6;;
36833;SDS011;48003;52.084;5.224;2022-11-24T06:33:20;6.7;;;1.8;;
36833;SDS011;48003;52.084;5.224;2022-11-24T06:34:56;7.2;;;2.0;;
36833;SDS011;48003;52.084;5.224;2022-11-24T06:36:32;6.5;;;2.0;;
36833;SDS011;48003;52.084;5.224;2022-11-24T06:38:09;6.2;;;2.1;;
36833;SDS011;48003;52.084;5.224;2022-11-24T06:41:22;5.5;;;1.8;;
36833;SDS011;48003;52.084;5.224;2022-11-24T06:42:58;6.4;;;2.0;;
36833;SDS011;48003;52.084;5.224;2022-11-24T06:44:34;5.3;;;2.1;;
36833;SDS011;48003;52.084;5.224;2022-11-24T06:47:48;5.8;;;2.21;;
36833;SDS011;48003;52.084;5.224;2022-11-24T06:49:24;6.3;;;2.4;;
36833;SDS011;48003;52.084;5.224;2022-11-24T06:51:00;7.2;;;3.0;;
36833;SDS011;48003;52.084;5.224;2022-11-24T06:54:16;6.8;;;2.8;;
36833;SDS011;48003;52.084;5.224;2022-11-24T06:55:55;6.6;;;3.0;;
36833;SDS011;48003;52.084;5.224;2022-11-24T06:57:34;7.2;;;3.2;;
36833;SDS011;48003;52.084;5.224;2022-11-24T06:59:13;9.21;;;3.7;;
36833;SDS011;48003;52.084;5.224;2022-11-24T07:02:28;7.4;;;4.0;;
36833;SDS011;48003;52.084;5.224;2022-11-24T07:04:04;7.4;;;4.0;;
36833;SDS011;48003;52.084;5.224;2022-11-24T07:05:40;8.1;;;4.3;;
36833;SDS011;48003;52.084;5.224;2022-11-24T07:08:53;8.31;;;4.8;;
36833;SDS011;48003;52.084;5.224;2022-11-24T07:10:29;8.9;;;4.8;;
36833;SDS011;48003;52.084;5.224;2022-11-24T07:12:05;9.71;;;5.3;;
36833;SDS011;48003;52.084;5.224;2022-11-24T07:13:42;9.81;;;5.5;;
36833;SDS011;48003;52.084;5.224;2022-11-24T07:16:56;9.21;;;5.7;;
36833;SDS011;48003;52.084;5.224;2022-11-24T07:18:32;10.4;;;6.0;;
36833;SDS011;48003;52.084;5.224;2022-11-24T07:20:08;9.71;;;6.0;;
36833;SDS011;48003;52.084;5.224;2022-11-24T07:23:21;11.3;;;6.7;;
36833;SDS011;48003;52.084;5.224;2022-11-24T07:24:57;9.5;;;6.5;;
36833;SDS011;48003;52.084;5.224;2022-11-24T07:26:36;10.3;;;6.3;;
36833;SDS011;48003;52.084;5.224;2022-11-24T07:29:48;10.3;;;6.5;;
36833;SDS011;48003;52.084;5.224;2022-11-24T07:31:24;13.6;;;7.7;;
36833;SDS011;48003;52.084;5.224;2022-11-24T07:33:01;10.9;;;7.1;;
36833;SDS011;48003;52.084;5.224;2022-11-24T07:34:37;11.8;;;7.5;;
36833;SDS011;48003;52.084;5.224;2022-11-24T07:37:52;12.5;;;7.3;;
36833;SDS011;48003;52.084;5.224;2022-11-24T07:39:29;11.9;;;7.2;;
36833;SDS011;48003;52.084;5.224;2022-11-24T07:41:06;10.8;;;6.8;;
36833;SDS011;48003;52.084;5.224;2022-11-24T07:44:21;13.1;;;7.5;;
36833;SDS011;48003;52.084;5.224;2022-11-24T07:45:58;12.6;;;7.2;;
36833;SDS011;48003;52.084;5.224;2022-11-24T07:47:37;11.0;;;7.1;;
36833;SDS011;48003;52.084;5.224;2022-11-24T07:49:14;12.6;;;7.4;;
36833;SDS011;48003;52.084;5.224;2022-11-24T07:52:26;10.6;;;7.3;;
36833;SDS011;48003;52.084;5.224;2022-11-24T07:54:03;14.1;;;7.1;;
36833;SDS011;48003;52.084;5.224;2022-11-24T07:55:39;16.11;;;7.6;;
36833;SDS011;48003;52.084;5.224;2022-11-24T08:00:27;14.7;;;7.7;;
36833;SDS011;48003;52.084;5.224;2022-11-24T08:02:03;13.3;;;7.3;;
36833;SDS011;48003;52.084;5.224;2022-11-24T08:05:15;13.9;;;7.0;;
36833;SDS011;48003;52.084;5.224;2022-11-24T08:06:52;11.8;;;7.0;;
36833;SDS011;48003;52.084;5.224;2022-11-24T08:08:32;12.6;;;6.5;;
36833;SDS011;48003;52.084;5.224;2022-11-24T08:10:08;11.5;;;6.4;;
36833;SDS011;48003;52.084;5.224;2022-11-24T08:13:21;11.5;;;6.4;;
36833;SDS011;48003;52.084;5.224;2022-11-24T08:14:57;11.8;;;6.5;;
36833;SDS011;48003;52.084;5.224;2022-11-24T08:16:34;13.3;;;6.7;;
36833;SDS011;48003;52.084;5.224;2022-11-24T08:19:47;15.7;;;7.0;;
36833;SDS011;48003;52.084;5.224;2022-11-24T08:21:24;11.7;;;6.2;;
36833;SDS011;48003;52.084;5.224;2022-11-24T08:23:01;11.9;;;6.7;;
36833;SDS011;48003;52.084;5.224;2022-11-24T08:26:16;12.3;;;7.2;;
36833;SDS011;48003;52.084;5.224;2022-11-24T08:27:53;13.2;;;7.0;;
36833;SDS011;48003;52.084;5.224;2022-11-24T08:29:29;11.5;;;6.4;;
36833;SDS011;48003;52.084;5.224;2022-11-24T08:31:07;12.2;;;7.0;;
36833;SDS011;48003;52.084;5.224;2022-11-24T08:34:23;14.5;;;7.0;;
36833;SDS011;48003;52.084;5.224;2022-11-24T08:36:01;13.1;;;6.3;;
36833;SDS011;48003;52.084;5.224;2022-11-24T08:37:39;13.5;;;6.6;;
36833;SDS011;48003;52.084;5.224;2022-11-24T08:40:52;14.8;;;7.2;;
36833;SDS011;48003;52.084;5.224;2022-11-24T08:42:28;12.6;;;6.3;;
36833;SDS011;48003;52.084;5.224;2022-11-24T08:44:07;11.2;;;6.6;;
36833;SDS011;48003;52.084;5.224;2022-11-24T08:45:43;13.2;;;6.7;;
36833;SDS011;48003;52.084;5.224;2022-11-24T08:48:56;14.5;;;6.7;;
36833;SDS011;48003;52.084;5.224;2022-11-24T08:50:35;11.9;;;6.7;;
36833;SDS011;48003;52.084;5.224;2022-11-24T08:52:11;11.6;;;6.2;;
36833;SDS011;48003;52.084;5.224;2022-11-24T08:55:29;11.5;;;5.8;;
36833;SDS011;48003;52.084;5.224;2022-11-24T08:57:05;10.3;;;5.4;;
36833;SDS011;48003;52.084;5.224;2022-11-24T08:58:41;10.1;;;5.7;;
36833;SDS011;48003;52.084;5.224;2022-11-24T09:01:57;12.0;;;6.0;;
36833;SDS011;48003;52.084;5.224;2022-11-24T09:03:34;11.7;;;5.6;;
36833;SDS011;48003;52.084;5.224;2022-11-24T09:05:11;12.7;;;5.7;;
36833;SDS011;48003;52.084;5.224;2022-11-24T09:06:47;14.1;;;5.3;;
36833;SDS011;48003;52.084;5.224;2022-11-24T09:09:59;11.9;;;5.11;;
36833;SDS011;48003;52.084;5.224;2022-11-24T09:11:37;9.9;;;4.5;;
36833;SDS011;48003;52.084;5.224;2022-11-24T09:13:14;10.6;;;4.61;;
36833;SDS011;48003;52.084;5.224;2022-11-24T09:16:26;12.7;;;4.91;;
36833;SDS011;48003;52.084;5.224;2022-11-24T09:18:04;11.9;;;4.2;;
36833;SDS011;48003;52.084;5.224;2022-11-24T09:19:40;13.9;;;3.9;;
36833;SDS011;48003;52.084;5.224;2022-11-24T09:21:18;12.4;;;4.1;;
36833;SDS011;48003;52.084;5.224;2022-11-24T09:24:32;12.5;;;4.3;;
36833;SDS011;48003;52.084;5.224;2022-11-24T09:26:09;11.9;;;4.1;;
36833;SDS011;48003;52.084;5.224;2022-11-24T09:27:47;11.9;;;4.1;;
36833;SDS011;48003;52.084;5.224;2022-11-24T09:31:00;8.9;;;3.3;;
36833;SDS011;48003;52.084;5.224;2022-11-24T09:32:37;11.2;;;4.0;;
36833;SDS011;48003;52.084;5.224;2022-11-24T09:34:14;13.6;;;3.2;;
36833;SDS011;48003;52.084;5.224;2022-11-24T09:37:27;14.0;;;3.6;;
36833;SDS011;48003;52.084;5.224;2022-11-24T09:39:03;13.0;;;3.5;;
36833;SDS011;48003;52.084;5.224;2022-11-24T09:40:41;13.3;;;3.8;;
36833;SDS011;48003;52.084;5.224;2022-11-24T09:42:18;14.3;;;3.4;;
36833;SDS011;48003;52.084;5.224;2022-11-24T09:46:02;10.5;;;3.4;;
36833;SDS011;48003;52.084;5.224;2022-11-24T09:47:46;14.7;;;3.8;;
36833;SDS011;48003;52.084;5.224;2022-11-24T09:49:32;16.4;;;3.4;;
36833;SDS011;48003;52.084;5.224;2022-11-24T09:51:15;14.0;;;3.4;;
36833;SDS011;48003;52.084;5.224;2022-11-24T09:53:04;10.5;;;2.9;;
36833;SDS011;48003;52.084;5.224;2022-11-24T09:54:48;14.9;;;3.4;;
36833;SDS011;48003;52.084;5.224;2022-11-24T09:58:23;17.41;;;3.6;;
36833;SDS011;48003;52.084;5.224;2022-11-24T10:00:12;11.2;;;2.9;;
36833;SDS011;48003;52.084;5.224;2022-11-24T10:03:34;16.4;;;3.5;;
36833;SDS011;48003;52.084;5.224;2022-11-24T10:05:13;16.4;;;3.5;;
36833;SDS011;48003;52.084;5.224;2022-11-24T10:08:41;14.1;;;3.5;;
36833;SDS011;48003;52.084;5.224;2022-11-24T10:10:33;18.3;;;3.5;;
36833;SDS011;48003;52.084;5.224;2022-11-24T10:12:26;14.1;;;3.1;;
36833;SDS011;48003;52.084;5.224;2022-11-24T10:14:25;14.2;;;3.2;;
36833;SDS011;48003;52.084;5.224;2022-11-24T10:17:11;15.3;;;3.5;;
36833;SDS011;48003;52.084;5.224;2022-11-24T10:19:02;11.9;;;3.0;;
36833;SDS011;48003;52.084;5.224;2022-11-24T10:20:51;12.8;;;3.2;;
36833;SDS011;48003;52.084;5.224;2022-11-24T10:22:40;16.0;;;3.7;;
36833;SDS011;48003;52.084;5.224;2022-11-24T10:24:31;13.0;;;3.2;;
36833;SDS011;48003;52.084;5.224;2022-11-24T10:28:11;14.0;;;3.6;;
36833;SDS011;48003;52.084;5.224;2022-11-24T10:29:50;15.3;;;3.4;;
36833;SDS011;48003;52.084;5.224;2022-11-24T10:33:12;16.0;;;3.5;;
36833;SDS011;48003;52.084;5.224;2022-11-24T10:34:53;17.3;;;3.4;;
36833;SDS011;48003;52.084;5.224;2022-11-24T10:36:36;13.6;;;3.3;;
36833;SDS011;48003;52.084;5.224;2022-11-24T10:40:16;20.3;;;3.6;;
36833;SDS011;48003;52.084;5.224;2022-11-24T10:42:02;13.5;;;3.5;;
36833;SDS011;48003;52.084;5.224;2022-11-24T10:43:46;14.9;;;3.6;;
36833;SDS011;48003;52.084;5.224;2022-11-24T10:45:24;14.9;;;3.4;;
36833;SDS011;48003;52.084;5.224;2022-11-24T10:47:02;15.4;;;3.5;;
36833;SDS011;48003;52.084;5.224;2022-11-24T10:50:22;19.41;;;3.8;;
36833;SDS011;48003;52.084;5.224;2022-11-24T10:52:03;18.5;;;3.5;;
36833;SDS011;48003;52.084;5.224;2022-11-24T10:53:46;14.8;;;3.7;;
36833;SDS011;48003;52.084;5.224;2022-11-24T10:55:23;19.5;;;3.6;;
36833;SDS011;48003;52.084;5.224;2022-11-24T10:58:36;15.4;;;3.3;;
36833;SDS011;48003;52.084;5.224;2022-11-24T11:00:29;17.61;;;3.1;;
36833;SDS011;48003;52.084;5.224;2022-11-24T11:02:25;16.9;;;3.8;;
36833;SDS011;48003;52.084;5.224;2022-11-24T11:04:11;14.7;;;3.5;;
36833;SDS011;48003;52.084;5.224;2022-11-24T11:05:54;14.7;;;3.4;;
36833;SDS011;48003;52.084;5.224;2022-11-24T11:09:16;18.2;;;3.6;;
36833;SDS011;48003;52.084;5.224;2022-11-24T11:11:26;13.4;;;3.6;;
36833;SDS011;48003;52.084;5.224;2022-11-24T11:13:19;16.11;;;3.6;;
36833;SDS011;48003;52.084;5.224;2022-11-24T11:15:12;18.61;;;3.5;;
36833;SDS011;48003;52.084;5.224;2022-11-24T11:16:57;18.2;;;3.5;;
36833;SDS011;48003;52.084;5.224;2022-11-24T11:18:34;15.7;;;3.3;;
36833;SDS011;48003;52.084;5.224;2022-11-24T11:21:58;17.11;;;4.0;;
36833;SDS011;48003;52.084;5.224;2022-11-24T11:23:36;18.3;;;3.7;;
36833;SDS011;48003;52.084;5.224;2022-11-24T11:25:21;18.0;;;3.5;;
36833;SDS011;48003;52.084;5.224;2022-11-24T11:27:02;19.2;;;3.7;;
36833;SDS011;48003;52.084;5.224;2022-11-24T11:30:18;19.91;;;3.9;;
36833;SDS011;48003;52.084;5.224;2022-11-24T11:31:59;17.2;;;3.8;;
36833;SDS011;48003;52.084;5.224;2022-11-24T11:33:39;18.41;;;3.9;;
36833;SDS011;48003;52.084;5.224;2022-11-24T11:35:15;25.5;;;4.1;;
36833;SDS011;48003;52.084;5.224;2022-11-24T11:38:32;17.3;;;3.9;;
36833;SDS011;48003;52.084;5.224;2022-11-24T11:40:14;14.9;;;3.5;;
36833;SDS011;48003;52.084;5.224;2022-11-24T11:41:53;20.41;;;4.0;;
36833;SDS011;48003;52.084;5.224;2022-11-24T11:43:42;20.3;;;4.2;;
36833;SDS011;48003;52.084;5.224;2022-11-24T11:47:07;19.2;;;4.3;;
36833;SDS011;48003;52.084;5.224;2022-11-24T11:48:52;18.61;;;4.1;;
36833;SDS011;48003;52.084;5.224;2022-11-24T11:50:31;19.0;;;4.41;;
36833;SDS011;48003;52.084;5.224;2022-11-24T11:52:27;20.5;;;4.3;;
36833;SDS011;48003;52.084;5.224;2022-11-24T11:55:06;20.6;;;4.2;;
36833;SDS011;48003;52.084;5.224;2022-11-24T11:57:05;19.41;;;4.41;;
36833;SDS011;48003;52.084;5.224;2022-11-24T11:58:53;20.6;;;3.7;;
36833;SDS011;48003;52.084;5.224;2022-11-24T12:01:43;17.7;;;3.9;;
36833;SDS011;48003;52.084;5.224;2022-11-24T12:03:46;21.0;;;4.5;;
36833;SDS011;48003;52.084;5.224;2022-11-24T12:05:45;19.61;;;4.1;;
36833;SDS011;48003;52.084;5.224;2022-11-24T12:07:35;19.91;;;4.61;;
36833;SDS011;48003;52.084;5.224;2022-11-24T12:09:34;19.5;;;4.1;;
36833;SDS011;48003;52.084;5.224;2022-11-24T12:11:24;18.11;;;4.1;;
36833;SDS011;48003;52.084;5.224;2022-11-24T12:13:26;16.11;;;3.9;;
36833;SDS011;48003;52.084;5.224;2022-11-24T12:15:22;18.11;;;4.1;;
36833;SDS011;48003;52.084;5.224;2022-11-24T12:17:06;18.5;;;4.1;;
36833;SDS011;48003;52.084;5.224;2022-11-24T12:20:51;20.5;;;4.0;;
36833;SDS011;48003;52.084;5.224;2022-11-24T12:22:41;17.61;;;4.5;;
36833;SDS011;48003;52.084;5.224;2022-11-24T12:24:27;19.41;;;4.3;;
36833;SDS011;48003;52.084;5.224;2022-11-24T12:26:15;17.91;;;3.6;;
36833;SDS011;48003;52.084;5.224;2022-11-24T12:28:02;18.11;;;3.9;;
36833;SDS011;48003;52.084;5.224;2022-11-24T12:30:03;15.9;;;4.61;;
36833;SDS011;48003;52.084;5.224;2022-11-24T12:31:46;18.0;;;4.2;;
36833;SDS011;48003;52.084;5.224;2022-11-24T12:35:36;17.41;;;3.8;;
36833;SDS011;48003;52.084;5.224;2022-11-24T12:37:22;17.11;;;3.7;;
36833;SDS011;48003;52.084;5.224;2022-11-24T12:39:15;18.41;;;4.1;;
36833;SDS011;48003;52.084;5.224;2022-11-24T12:41:07;16.9;;;3.6;;
36833;SDS011;48003;52.084;5.224;2022-11-24T12:43:02;18.3;;;3.9;;
36833;SDS011;48003;52.084;5.224;2022-11-24T12:44:53;15.2;;;4.0;;
36833;SDS011;48003;52.084;5.224;2022-11-24T12:46:49;18.8;;;4.0;;
36833;SDS011;48003;52.084;5.224;2022-11-24T12:48:37;20.8;;;4.1;;
36833;SDS011;48003;52.084;5.224;2022-11-24T12:50:28;17.2;;;3.5;;
36833;SDS011;48003;52.084;5.224;2022-11-24T12:53:56;18.8;;;4.0;;
36833;SDS011;48003;52.084;5.224;2022-11-24T12:55:38;16.5;;;3.7;;
36833;SDS011;48003;52.084;5.224;2022-11-24T12:57:18;15.3;;;4.0;;
36833;SDS011;48003;52.084;5.224;2022-11-24T12:59:08;21.5;;;3.8;;
36833;SDS011;48003;52.084;5.224;2022-11-24T13:01:03;21.7;;;3.9;;
36833;SDS011;48003;52.084;5.224;2022-11-24T13:04:48;15.6;;;3.4;;
36833;SDS011;48003;52.084;5.224;2022-11-24T13:06:34;17.0;;;3.7;;
36833;SDS011;48003;52.084;5.224;2022-11-24T13:08:19;17.2;;;3.4;;
36833;SDS011;48003;52.084;5.224;2022-11-24T13:10:30;15.8;;;3.5;;